createdAt,value
2017-11-23T00:01:23.749Z,91.08
2017-11-23T00:03:51.353Z,91.55
2017-11-23T00:06:18.971Z,91.78
2017-11-23T00:08:46.559Z,91.85
2017-11-23T00:11:14.555Z,92.14
2017-11-23T00:13:42.257Z,92.29
2017-11-23T00:16:22.567Z,92.50
2017-11-23T00:18:50.156Z,92.85
2017-11-23T00:21:17.742Z,93.22
2017-11-23T00:23:52.323Z,93.46
2017-11-23T00:26:19.917Z,93.15
2017-11-23T00:28:47.518Z,92.94
2017-11-23T00:31:15.139Z,93.10
2017-11-23T00:33:42.712Z,93.12
2017-11-23T00:36:10.733Z,92.90
2017-11-23T00:38:38.319Z,92.96
2017-11-23T00:41:06.240Z,92.74
2017-11-23T00:43:33.861Z,92.41
2017-11-23T00:46:01.447Z,92.12
2017-11-23T00:48:29.324Z,92.12
2017-11-23T00:50:56.938Z,92.15
2017-11-23T00:53:24.551Z,92.20
2017-11-23T00:55:52.180Z,91.84
2017-11-23T00:58:22.714Z,91.86
2017-11-23T01:00:50.303Z,91.65
2017-11-23T01:03:28.392Z,91.76
2017-11-23T01:05:55.989Z,91.95
2017-11-23T01:08:27.382Z,92.28
2017-11-23T01:10:55.035Z,92.47
2017-11-23T01:13:24.312Z,92.66
2017-11-23T01:15:51.951Z,92.96
2017-11-23T01:18:30.088Z,93.19
2017-11-23T01:20:57.697Z,93.12
2017-11-23T01:23:25.624Z,92.86
2017-11-23T01:25:53.265Z,92.80
2017-11-23T01:28:20.883Z,93.15
2017-11-23T01:30:48.471Z,92.62
2017-11-23T01:33:17.205Z,91.80
2017-11-23T01:35:44.815Z,91.84
2017-11-23T01:38:12.410Z,91.55
2017-11-23T01:40:40.206Z,91.25
2017-11-23T01:43:07.836Z,91.30
2017-11-23T01:45:35.409Z,91.42
2017-11-23T01:48:02.992Z,91.48
2017-11-23T01:50:30.623Z,91.50
2017-11-23T01:52:58.192Z,91.66
2017-11-23T01:55:25.810Z,91.78
2017-11-23T01:57:53.792Z,91.54
2017-11-23T02:00:21.351Z,92.12
2017-11-23T02:02:48.935Z,92.49
2017-11-23T02:05:16.568Z,92.24
2017-11-23T02:07:45.167Z,92.20
2017-11-23T02:10:12.774Z,92.48
2017-11-23T02:12:40.388Z,92.86
2017-11-23T02:15:11.228Z,93.11
2017-11-23T02:17:38.853Z,93.12
2017-11-23T02:20:07.082Z,92.96
2017-11-23T02:22:34.676Z,92.92
2017-11-23T02:25:02.275Z,93.21
2017-11-23T02:27:29.854Z,93.30
2017-11-23T02:29:57.455Z,93.30
2017-11-23T02:32:38.002Z,93.59
2017-11-23T02:35:06.024Z,93.51
2017-11-23T02:37:40.035Z,93.33
2017-11-23T02:40:11.056Z,93.04
2017-11-23T02:42:38.621Z,93.05
2017-11-23T02:45:06.203Z,92.94
2017-11-23T02:47:40.388Z,92.83
2017-11-23T02:50:14.023Z,92.73
2017-11-23T02:52:41.639Z,92.66
2017-11-23T02:55:09.239Z,92.54
2017-11-23T02:57:39.846Z,92.43
2017-11-23T03:00:10.818Z,92.39
2017-11-23T03:02:39.021Z,92.42
2017-11-23T03:07:39.872Z,92.54
2017-11-23T03:10:07.617Z,92.37
2017-11-23T03:15:13.710Z,91.92
2017-11-23T03:17:41.259Z,92.02
2017-11-23T03:20:08.870Z,92.43
2017-11-23T03:22:36.495Z,93.09
2017-11-23T03:25:04.128Z,93.41
2017-11-23T03:27:31.724Z,93.79
2017-11-23T03:29:59.568Z,94.24
2017-11-23T03:32:27.139Z,94.56
2017-11-23T03:34:54.774Z,94.72
2017-11-23T03:37:22.358Z,94.87
2017-11-23T03:39:49.921Z,95.71
2017-11-23T03:42:17.562Z,95.76
2017-11-23T03:44:45.135Z,95.58
2017-11-23T03:47:13.099Z,95.49
2017-11-23T03:49:40.690Z,95.47
2017-11-23T03:52:08.265Z,95.87
2017-11-23T03:54:35.902Z,96.10
2017-11-23T03:57:03.454Z,96.18
2017-11-23T03:59:31.018Z,96.43
2017-11-23T04:01:58.578Z,96.59
2017-11-23T04:04:26.129Z,96.80
2017-11-23T04:06:53.749Z,96.85
2017-11-23T04:09:21.319Z,96.91
2017-11-23T04:11:48.874Z,97.04
2017-11-23T04:14:16.464Z,97.00
2017-11-23T04:16:44.059Z,96.95
2017-11-23T04:19:12.048Z,96.88
2017-11-23T04:21:39.609Z,96.77
2017-11-23T04:24:07.167Z,96.56
2017-11-23T04:26:34.725Z,96.27
2017-11-23T04:29:02.286Z,96.14
2017-11-23T04:31:29.898Z,95.98
2017-11-23T04:33:57.450Z,96.00
2017-11-23T04:36:25.407Z,96.14
2017-11-23T04:38:52.964Z,96.00
2017-11-23T04:41:20.521Z,95.68
2017-11-23T04:43:48.118Z,95.55
2017-11-23T04:46:15.696Z,95.53
2017-11-23T04:48:43.262Z,95.64
2017-11-23T04:51:10.818Z,95.74
2017-11-23T04:53:38.433Z,95.46
2017-11-23T04:56:06.075Z,95.56
2017-11-23T04:58:33.733Z,95.70
2017-11-23T05:01:01.323Z,95.89
2017-11-23T05:03:28.920Z,95.83
2017-11-23T05:05:56.516Z,95.58
2017-11-23T05:08:24.080Z,95.64
2017-11-23T05:10:52.113Z,95.61
2017-11-23T05:13:19.731Z,95.54
2017-11-23T05:15:47.327Z,95.33
2017-11-23T05:18:14.907Z,95.03
2017-11-23T05:20:42.492Z,94.96
2017-11-23T05:23:10.075Z,94.82
2017-11-23T05:25:37.634Z,94.77
2017-11-23T05:28:05.241Z,94.64
2017-11-23T05:30:32.854Z,94.53
2017-11-23T05:33:00.431Z,94.60
2017-11-23T05:35:28.017Z,94.70
2017-11-23T05:37:55.671Z,94.62
2017-11-23T05:40:23.298Z,94.52
2017-11-23T05:42:50.869Z,94.19
2017-11-23T05:45:18.545Z,93.80
2017-11-23T05:47:46.132Z,93.76
2017-11-23T05:50:13.717Z,93.66
2017-11-23T05:52:41.357Z,93.18
2017-11-23T05:55:08.919Z,92.78
2017-11-23T05:57:36.520Z,92.85
2017-11-23T06:00:04.129Z,92.97
2017-11-23T06:02:31.720Z,93.25
2017-11-23T06:04:59.726Z,93.04
2017-11-23T06:07:27.279Z,93.10
2017-11-23T06:09:54.844Z,93.35
2017-11-23T06:12:22.421Z,93.20
2017-11-23T06:14:50.029Z,92.69
2017-11-23T06:17:17.681Z,92.88
2017-11-23T06:19:45.297Z,92.95
2017-11-23T06:22:12.880Z,93.10
2017-11-23T06:24:40.502Z,92.97
2017-11-23T06:27:08.068Z,92.87
2017-11-23T06:29:36.118Z,92.67
2017-11-23T06:32:03.720Z,92.45
2017-11-23T06:34:31.292Z,92.16
2017-11-23T06:36:58.888Z,92.14
2017-11-23T06:39:26.464Z,92.09
2017-11-23T06:41:54.417Z,92.37
2017-11-23T06:44:22.011Z,92.65
2017-11-23T06:46:49.606Z,92.83
2017-11-23T06:49:17.213Z,93.06
2017-11-23T06:51:44.869Z,93.12
2017-11-23T06:54:12.499Z,92.79
2017-11-23T06:56:40.042Z,92.19
2017-11-23T06:59:08.062Z,91.96
2017-11-23T07:01:35.619Z,92.12
2017-11-23T07:04:03.204Z,91.86
2017-11-23T07:06:30.797Z,92.28
2017-11-23T07:08:58.381Z,92.90
2017-11-23T07:11:26.288Z,92.88
2017-11-23T07:13:53.900Z,92.91
2017-11-23T07:16:21.498Z,93.17
2017-11-23T07:18:49.070Z,92.91
2017-11-23T07:21:16.632Z,92.80
2017-11-23T07:23:44.277Z,92.87
2017-11-23T07:26:11.871Z,93.26
2017-11-23T07:28:39.463Z,93.49
2017-11-23T07:31:07.054Z,93.40
2017-11-23T07:33:34.661Z,93.29
2017-11-23T07:36:02.222Z,93.20
2017-11-23T07:38:29.785Z,93.22
2017-11-23T07:40:57.377Z,93.33
2017-11-23T07:43:24.984Z,93.44
2017-11-23T07:45:52.565Z,93.41
2017-11-23T07:48:20.134Z,93.49
2017-11-23T07:50:47.733Z,93.44
2017-11-23T07:53:15.354Z,93.59
2017-11-23T07:55:42.915Z,93.56
2017-11-23T07:58:10.536Z,93.50
2017-11-23T08:00:38.131Z,93.47
2017-11-23T08:03:05.744Z,93.44
2017-11-23T08:05:33.314Z,93.57
2017-11-23T08:08:00.894Z,93.69
2017-11-23T08:10:28.532Z,93.83
2017-11-23T08:12:56.129Z,93.85
2017-11-23T08:15:23.840Z,93.89
2017-11-23T08:17:51.419Z,93.98
2017-11-23T08:20:19.030Z,94.15
2017-11-23T08:22:46.626Z,94.31
2017-11-23T08:25:14.191Z,94.22
2017-11-23T08:27:41.803Z,94.12
2017-11-23T08:30:09.379Z,94.01
2017-11-23T08:32:36.985Z,94.19
2017-11-23T08:35:04.557Z,94.19
2017-11-23T08:37:32.124Z,94.10
2017-11-23T08:39:59.714Z,94.01
2017-11-23T08:42:27.287Z,93.87
2017-11-23T08:44:54.912Z,93.77
2017-11-23T08:47:22.484Z,93.70
2017-11-23T08:49:50.060Z,93.65
2017-11-23T08:52:20.584Z,93.55
2017-11-23T08:54:53.502Z,93.33
2017-11-23T08:57:21.089Z,93.18
2017-11-23T08:59:48.641Z,93.02
2017-11-23T09:02:16.247Z,92.76
2017-11-23T09:04:43.803Z,92.58
2017-11-23T09:07:11.394Z,92.40
2017-11-23T09:09:38.972Z,92.30
2017-11-23T09:12:09.151Z,92.03
2017-11-23T09:14:36.839Z,91.94
2017-11-23T09:17:04.413Z,90.28
2017-11-23T09:19:32.015Z,90.09
2017-11-23T09:21:59.558Z,89.17
2017-11-23T09:24:27.110Z,88.29
2017-11-23T09:26:54.766Z,87.50
2017-11-23T09:29:22.383Z,87.41
2017-11-23T09:31:50.293Z,86.85
2017-11-23T09:34:17.854Z,86.62
2017-11-23T09:36:45.402Z,86.54
2017-11-23T09:39:12.973Z,86.19
2017-11-23T09:41:40.737Z,85.68
2017-11-23T09:44:08.737Z,85.90
2017-11-23T09:46:36.326Z,85.61
2017-11-23T09:49:03.894Z,85.38
2017-11-23T09:51:31.530Z,85.44
2017-11-23T09:53:59.159Z,84.95
2017-11-23T09:56:26.784Z,84.73
2017-11-23T09:58:54.360Z,84.45
2017-11-23T10:01:21.938Z,83.97
2017-11-23T10:03:49.508Z,83.85
2017-11-23T10:06:17.142Z,83.58
2017-11-23T10:08:44.719Z,83.80
2017-11-23T10:11:12.293Z,83.96
2017-11-23T10:13:39.972Z,83.97
2017-11-23T10:16:07.555Z,83.59
2017-11-23T10:18:35.143Z,81.98
2017-11-23T10:21:02.705Z,81.74
2017-11-23T10:23:30.318Z,81.69
2017-11-23T10:25:57.935Z,81.80
2017-11-23T10:28:25.540Z,80.82
2017-11-23T10:30:53.126Z,80.89
2017-11-23T10:33:20.736Z,79.71
2017-11-23T10:35:48.362Z,79.73
2017-11-23T10:38:15.940Z,79.36
2017-11-23T10:40:43.510Z,79.52
2017-11-23T10:43:11.144Z,79.38
2017-11-23T10:45:38.709Z,78.70
2017-11-23T10:48:06.299Z,78.66
2017-11-23T10:50:33.878Z,78.84
2017-11-23T10:53:01.439Z,78.51
2017-11-23T10:55:29.023Z,78.77
2017-11-23T10:57:56.687Z,78.46
2017-11-23T11:00:24.274Z,78.52
2017-11-23T11:02:51.847Z,78.45
2017-11-23T11:05:19.420Z,78.28
2017-11-23T11:07:47.005Z,78.46
2017-11-23T11:10:14.570Z,77.12
2017-11-23T11:12:42.136Z,77.74
2017-11-23T11:15:09.728Z,77.39
2017-11-23T11:17:37.356Z,77.18
2017-11-23T11:20:04.941Z,77.04
2017-11-23T11:22:32.514Z,76.95
2017-11-23T11:25:00.097Z,76.25
2017-11-23T11:27:27.655Z,76.15
2017-11-23T11:29:55.264Z,76.47
2017-11-23T11:32:22.841Z,76.77
2017-11-23T11:34:50.402Z,76.60
2017-11-23T11:37:18.054Z,76.12
2017-11-23T11:39:45.639Z,76.13
2017-11-23T11:42:13.254Z,76.09
2017-11-23T11:44:40.826Z,76.37
2017-11-23T11:47:08.437Z,76.34
2017-11-23T11:49:35.994Z,76.32
2017-11-23T11:52:03.580Z,75.32
2017-11-23T11:54:31.498Z,76.01
2017-11-23T11:56:59.082Z,76.15
2017-11-23T11:59:26.688Z,76.40
2017-11-23T12:01:54.277Z,76.17
2017-11-23T12:04:21.880Z,76.16
2017-11-23T12:06:49.455Z,76.16
2017-11-23T12:09:17.017Z,76.17
2017-11-23T12:11:44.610Z,76.10
2017-11-23T12:14:24.043Z,75.48
2017-11-23T12:17:03.222Z,75.42
2017-11-23T12:19:42.680Z,75.03
2017-11-23T12:22:22.090Z,74.44
2017-11-23T12:25:01.540Z,74.01
2017-11-23T12:27:40.932Z,74.27
2017-11-23T12:30:12.460Z,73.78
2017-11-23T12:32:40.047Z,73.59
2017-11-23T12:35:07.611Z,73.83
2017-11-23T12:37:35.229Z,73.60
2017-11-23T12:40:02.793Z,73.51
2017-11-23T12:42:30.343Z,73.40
2017-11-23T12:44:58.097Z,73.33
2017-11-23T12:47:25.671Z,73.29
2017-11-23T12:49:53.549Z,72.97
2017-11-23T12:52:21.125Z,72.99
2017-11-23T12:54:48.701Z,72.31
2017-11-23T12:57:16.307Z,71.68
2017-11-23T12:59:43.874Z,71.37
2017-11-23T13:02:11.479Z,71.69
2017-11-23T13:04:39.072Z,71.41
2017-11-23T13:07:06.657Z,71.46
2017-11-23T13:09:34.252Z,71.50
2017-11-23T13:12:01.817Z,71.09
2017-11-23T13:14:29.413Z,70.21
2017-11-23T13:16:57.061Z,70.06
2017-11-23T13:19:24.703Z,70.53
2017-11-23T13:21:52.326Z,70.24
2017-11-23T13:24:19.927Z,69.92
2017-11-23T13:26:47.555Z,70.35
2017-11-23T13:29:15.168Z,70.22
2017-11-23T13:31:42.781Z,69.84
2017-11-23T13:34:10.413Z,70.01
2017-11-23T13:36:38.036Z,69.75
2017-11-23T13:39:05.632Z,69.64
2017-11-23T13:41:33.217Z,69.42
2017-11-23T13:44:00.851Z,69.28
2017-11-23T13:46:28.454Z,69.56
2017-11-23T13:48:56.484Z,69.84
2017-11-23T13:51:24.054Z,70.91
2017-11-23T13:53:51.641Z,70.75
2017-11-23T13:56:19.354Z,70.54
2017-11-23T13:58:46.931Z,71.17
2017-11-23T14:01:14.544Z,70.80
2017-11-23T14:03:42.141Z,70.31
2017-11-23T14:06:09.720Z,71.42
2017-11-23T14:08:37.306Z,71.49
2017-11-23T14:11:04.873Z,70.35
2017-11-23T14:13:32.531Z,71.03
2017-11-23T14:16:00.113Z,72.20
2017-11-23T14:18:28.098Z,72.15
2017-11-23T14:20:55.703Z,72.83
2017-11-23T14:23:23.424Z,73.11
2017-11-23T14:25:51.043Z,73.65
2017-11-23T14:28:18.621Z,74.18
2017-11-23T14:30:46.404Z,74.66
2017-11-23T14:33:14.419Z,74.91
2017-11-23T14:35:42.125Z,75.32
2017-11-23T14:38:09.729Z,76.06
2017-11-23T14:40:37.316Z,76.19
2017-11-23T14:43:04.928Z,76.65
2017-11-23T14:45:32.543Z,77.20
2017-11-23T14:48:00.139Z,77.60
2017-11-23T14:50:27.718Z,77.69
2017-11-23T14:52:55.339Z,78.17
2017-11-23T14:55:22.944Z,78.51
2017-11-23T14:57:51.038Z,78.59
2017-11-23T15:00:18.657Z,79.20
2017-11-23T15:02:46.248Z,79.50
2017-11-23T15:05:13.867Z,80.06
2017-11-23T15:07:41.475Z,80.97
2017-11-23T15:10:09.118Z,81.07
2017-11-23T15:12:36.694Z,81.21
2017-11-23T15:15:04.255Z,81.77
2017-11-23T15:17:31.839Z,81.92
2017-11-23T15:19:59.430Z,82.41
2017-11-23T15:22:27.084Z,82.43
2017-11-23T15:24:54.637Z,82.53
2017-11-23T15:27:22.274Z,82.74
2017-11-23T15:29:49.852Z,82.92
2017-11-23T15:32:17.445Z,83.33
2017-11-23T15:34:45.034Z,83.54
2017-11-23T15:37:12.628Z,83.93
2017-11-23T15:39:40.249Z,83.81
2017-11-23T15:42:07.815Z,83.94
2017-11-23T15:44:35.462Z,84.31
2017-11-23T15:47:03.060Z,84.45
2017-11-23T15:49:30.654Z,84.51
2017-11-23T15:51:58.257Z,84.65
2017-11-23T15:54:25.862Z,84.80
2017-11-23T15:56:53.509Z,84.79
2017-11-23T15:59:21.112Z,84.91
2017-11-23T16:01:48.742Z,85.46
2017-11-23T16:04:16.346Z,85.39
2017-11-23T16:06:43.948Z,85.74
2017-11-23T16:09:11.568Z,85.98
2017-11-23T16:11:39.132Z,85.97
2017-11-23T16:14:06.758Z,86.28
2017-11-23T16:16:34.335Z,87.48
2017-11-23T16:19:01.938Z,87.90
2017-11-23T16:21:29.539Z,87.87
2017-11-23T16:23:57.115Z,87.72
2017-11-23T16:26:25.136Z,87.73
2017-11-23T16:28:52.749Z,88.13
2017-11-23T16:31:20.308Z,89.07
2017-11-23T16:33:47.895Z,88.98
2017-11-23T16:36:15.983Z,89.34
2017-11-23T16:42:06.121Z,89.65
2017-11-23T16:47:45.613Z,89.69
2017-11-23T16:50:24.150Z,89.65
2017-11-23T16:56:00.629Z,89.69
2017-11-23T16:58:33.952Z,89.67
2017-11-23T17:01:07.515Z,89.84
2017-11-23T17:03:41.120Z,89.96
2017-11-23T17:06:25.877Z,90.21
2017-11-23T17:12:04.615Z,90.76
2017-11-23T17:14:38.094Z,90.66
2017-11-23T17:17:08.011Z,90.52
2017-11-23T17:19:35.985Z,90.43
2017-11-23T17:22:03.849Z,90.40
2017-11-23T17:24:32.288Z,90.30
2017-11-23T17:27:00.284Z,90.32
2017-11-23T17:29:28.181Z,90.33
2017-11-23T17:31:56.327Z,90.41
2017-11-23T17:34:24.332Z,90.59
2017-11-23T17:36:54.055Z,90.76
2017-11-23T17:39:22.077Z,91.08
2017-11-23T17:41:51.519Z,91.02
2017-11-23T17:44:21.220Z,90.89
2017-11-23T17:46:50.800Z,90.78
2017-11-23T17:49:18.824Z,90.97
2017-11-23T17:51:47.002Z,91.53
2017-11-23T17:54:14.989Z,91.45
2017-11-23T17:56:44.969Z,91.47
2017-11-23T17:59:15.990Z,91.31
2017-11-23T18:01:43.977Z,91.26
2017-11-23T18:04:11.867Z,91.28
2017-11-23T18:06:40.243Z,91.52
2017-11-23T18:09:08.110Z,91.52
2017-11-23T18:11:36.184Z,91.69
2017-11-23T18:14:04.258Z,92.05
2017-11-23T18:16:33.407Z,92.04
2017-11-23T18:19:02.315Z,91.98
2017-11-23T18:21:30.287Z,91.94
2017-11-23T18:23:59.013Z,92.15
2017-11-23T18:26:30.786Z,92.19
2017-11-23T18:28:58.854Z,92.02
2017-11-23T18:31:27.122Z,92.69
2017-11-23T18:33:55.514Z,92.65
2017-11-23T18:36:25.281Z,92.58
2017-11-23T18:38:54.231Z,92.48
2017-11-23T18:41:24.864Z,92.60
2017-11-23T18:43:52.940Z,92.50
2017-11-23T18:46:22.335Z,92.33
2017-11-23T18:48:53.977Z,92.47
2017-11-23T18:51:23.005Z,92.42
2017-11-23T18:53:52.098Z,92.24
2017-11-23T18:56:20.282Z,92.21
2017-11-23T18:58:49.271Z,91.97
2017-11-23T19:01:18.516Z,91.97
2017-11-23T19:03:54.124Z,91.92
2017-11-23T19:06:22.302Z,92.03
2017-11-23T19:08:51.515Z,92.10
2017-11-23T19:11:19.738Z,92.02
2017-11-23T19:13:47.867Z,91.88
2017-11-23T19:16:16.090Z,91.79
2017-11-23T19:18:44.910Z,91.82
2017-11-23T19:21:13.193Z,91.92
2017-11-23T19:23:43.015Z,91.90
2017-11-23T19:26:11.195Z,92.35
2017-11-23T19:28:39.472Z,92.62
2017-11-23T19:31:07.818Z,92.56
2017-11-23T19:33:36.068Z,92.44
2017-11-23T19:36:04.108Z,92.62
2017-11-23T19:38:32.740Z,92.47
2017-11-23T19:41:01.756Z,92.31
2017-11-23T19:43:30.770Z,92.19
2017-11-23T19:46:00.686Z,92.05
2017-11-23T19:48:30.867Z,92.17
2017-11-23T19:50:59.070Z,92.18
2017-11-23T19:53:29.226Z,92.06
2017-11-23T19:55:57.404Z,92.16
2017-11-23T19:58:26.690Z,92.19
2017-11-23T20:00:54.892Z,92.16
2017-11-23T20:03:23.779Z,92.12
2017-11-23T20:05:52.060Z,92.28
2017-11-23T20:08:20.396Z,92.47
2017-11-23T20:10:49.829Z,92.24
2017-11-23T20:13:22.358Z,92.11
2017-11-23T20:15:50.649Z,92.00
2017-11-23T20:18:22.445Z,92.05
2017-11-23T20:20:51.545Z,92.08
2017-11-23T20:23:22.210Z,92.47
2017-11-23T20:25:51.332Z,92.39
2017-11-23T20:28:26.124Z,92.39
2017-11-23T20:30:54.254Z,92.35
2017-11-23T20:33:22.373Z,92.31
2017-11-23T20:35:51.254Z,92.33
2017-11-23T20:38:21.080Z,92.30
2017-11-23T20:40:51.815Z,92.21
2017-11-23T20:43:25.009Z,92.04
2017-11-23T20:45:53.184Z,91.96
2017-11-23T20:48:22.281Z,91.92
2017-11-23T20:50:50.328Z,91.84
2017-11-23T20:53:18.519Z,91.94
2017-11-23T20:55:52.545Z,91.89
2017-11-23T20:58:20.679Z,91.89
2017-11-23T21:00:50.997Z,91.84
2017-11-23T21:03:22.101Z,91.91
2017-11-23T21:05:51.611Z,91.89
2017-11-23T21:08:19.894Z,91.72
2017-11-23T21:10:49.607Z,91.84
2017-11-23T21:13:17.763Z,92.07
2017-11-23T21:15:53.414Z,92.29
2017-11-23T21:18:21.519Z,92.26
2017-11-23T21:20:49.571Z,92.20
2017-11-23T21:23:17.855Z,92.22
2017-11-23T21:25:45.958Z,92.18
2017-11-23T21:28:14.006Z,92.25
2017-11-23T21:30:42.069Z,92.24
2017-11-23T21:33:10.164Z,92.14
2017-11-23T21:35:39.852Z,92.12
2017-11-23T21:38:14.512Z,92.15
2017-11-23T21:40:42.553Z,92.15
2017-11-23T21:43:10.525Z,92.14
2017-11-23T21:45:38.507Z,92.13
2017-11-23T21:48:06.416Z,92.17
2017-11-23T21:50:34.425Z,92.02
2017-11-23T21:53:02.716Z,91.89
2017-11-23T21:55:30.691Z,91.82
2017-11-23T21:57:58.667Z,91.80
2017-11-23T22:00:26.568Z,91.85
2017-11-23T22:02:56.038Z,91.84
2017-11-23T22:05:24.017Z,91.80
2017-11-23T22:07:51.931Z,91.88
2017-11-23T22:10:19.967Z,91.99
2017-11-23T22:12:47.914Z,92.13
2017-11-23T22:15:15.918Z,92.20
2017-11-23T22:17:44.884Z,92.31
2017-11-23T22:20:19.336Z,92.48
2017-11-23T22:22:47.412Z,92.46
2017-11-23T22:25:15.340Z,92.58
2017-11-23T22:27:43.307Z,92.64
2017-11-23T22:30:12.037Z,92.62
2017-11-23T22:32:40.113Z,92.60
2017-11-23T22:35:10.595Z,92.50
2017-11-23T22:37:38.820Z,92.65
2017-11-23T22:40:07.408Z,92.70
2017-11-23T22:42:35.474Z,92.64
2017-11-23T22:45:03.348Z,92.63
2017-11-23T22:47:31.212Z,92.60
2017-11-23T22:49:59.178Z,92.56
2017-11-23T22:52:27.069Z,92.43
2017-11-23T22:54:54.929Z,92.34
2017-11-23T22:57:29.998Z,92.47
2017-11-23T22:59:57.898Z,92.49
2017-11-23T23:02:25.808Z,92.71
2017-11-23T23:04:55.687Z,92.69
2017-11-23T23:07:24.422Z,92.68
2017-11-23T23:09:54.897Z,92.70
2017-11-23T23:12:22.917Z,92.75
2017-11-23T23:14:52.131Z,92.81
2017-11-23T23:17:20.090Z,92.92
2017-11-23T23:19:48.061Z,93.00
2017-11-23T23:22:16.047Z,93.05
2017-11-23T23:24:45.633Z,93.05
2017-11-23T23:27:22.211Z,93.07
2017-11-23T23:29:50.187Z,93.16
2017-11-23T23:32:18.265Z,93.25
2017-11-23T23:34:54.014Z,93.21
2017-11-23T23:37:22.245Z,93.36
2017-11-23T23:39:50.160Z,93.27
2017-11-23T23:42:22.804Z,93.38
2017-11-23T23:44:53.468Z,93.37
2017-11-23T23:47:21.547Z,93.26
2017-11-23T23:49:49.560Z,93.09
2017-11-23T23:52:17.490Z,92.95
2017-11-23T23:54:45.470Z,92.92
2017-11-23T23:57:13.343Z,92.81
2017-11-23T23:59:45.968Z,92.73
